sensor_id;sensor_type;location;lat;lon;timestamp;P1;durP1;ratioP1;P2;durP2;ratioP2
45011;SDS011;63444;48.148;11.542;2024-02-14T00:00:11;2.13;;;1.93;;
45011;SDS011;63444;48.148;11.542;2024-02-14T00:02:40;2.40;;;2.20;;
45011;SDS011;63444;48.148;11.542;2024-02-14T00:05:10;2.37;;;1.87;;
45011;SDS011;63444;48.148;11.542;2024-02-14T00:07:36;2.70;;;1.90;;
45011;SDS011;63444;48.148;11.542;2024-02-14T00:10:03;2.03;;;1.80;;
45011;SDS011;63444;48.148;11.542;2024-02-14T00:12:30;2.93;;;1.93;;
45011;SDS011;63444;48.148;11.542;2024-02-14T00:15:00;2.37;;;1.80;;
45011;SDS011;63444;48.148;11.542;2024-02-14T00:17:28;2.40;;;2.20;;
45011;SDS011;63444;48.148;11.542;2024-02-14T00:19:54;2.63;;;2.10;;
45011;SDS011;63444;48.148;11.542;2024-02-14T00:22:19;2.33;;;1.80;;
45011;SDS011;63444;48.148;11.542;2024-02-14T00:24:45;2.87;;;1.87;;
45011;SDS011;63444;48.148;11.542;2024-02-14T00:27:10;3.23;;;1.90;;
45011;SDS011;63444;48.148;11.542;2024-02-14T00:29:37;2.27;;;1.90;;
45011;SDS011;63444;48.148;11.542;2024-02-14T00:32:02;3.60;;;2.20;;
45011;SDS011;63444;48.148;11.542;2024-02-14T00:34:28;3.00;;;1.97;;
45011;SDS011;63444;48.148;11.542;2024-02-14T00:36:54;3.37;;;1.93;;
45011;SDS011;63444;48.148;11.542;2024-02-14T00:39:19;2.83;;;1.90;;
45011;SDS011;63444;48.148;11.542;2024-02-14T00:41:48;3.97;;;1.83;;
45011;SDS011;63444;48.148;11.542;2024-02-14T00:44:15;2.33;;;1.80;;
45011;SDS011;63444;48.148;11.542;2024-02-14T00:46:42;2.33;;;1.90;;
45011;SDS011;63444;48.148;11.542;2024-02-14T00:49:09;3.77;;;2.03;;
45011;SDS011;63444;48.148;11.542;2024-02-14T00:51:35;3.70;;;2.10;;
45011;SDS011;63444;48.148;11.542;2024-02-14T00:54:03;2.30;;;2.00;;
45011;SDS011;63444;48.148;11.542;2024-02-14T00:56:29;2.30;;;2.07;;
45011;SDS011;63444;48.148;11.542;2024-02-14T00:58:55;2.30;;;1.83;;
45011;SDS011;63444;48.148;11.542;2024-02-14T01:01:21;1.70;;;1.60;;
45011;SDS011;63444;48.148;11.542;2024-02-14T01:03:47;2.77;;;1.80;;
45011;SDS011;63444;48.148;11.542;2024-02-14T01:06:14;2.27;;;1.87;;
45011;SDS011;63444;48.148;11.542;2024-02-14T01:08:40;2.67;;;1.63;;
45011;SDS011;63444;48.148;11.542;2024-02-14T01:11:07;1.97;;;1.60;;
45011;SDS011;63444;48.148;11.542;2024-02-14T01:13:33;2.43;;;1.70;;
45011;SDS011;63444;48.148;11.542;2024-02-14T01:15:58;3.37;;;1.87;;
45011;SDS011;63444;48.148;11.542;2024-02-14T01:18:24;2.07;;;1.50;;
45011;SDS011;63444;48.148;11.542;2024-02-14T01:20:50;2.17;;;1.50;;
45011;SDS011;63444;48.148;11.542;2024-02-14T01:23:16;2.03;;;1.60;;
45011;SDS011;63444;48.148;11.542;2024-02-14T01:25:41;2.33;;;1.70;;
45011;SDS011;63444;48.148;11.542;2024-02-14T01:28:08;1.70;;;1.60;;
45011;SDS011;63444;48.148;11.542;2024-02-14T01:30:34;1.97;;;1.50;;
45011;SDS011;63444;48.148;11.542;2024-02-14T01:33:01;1.83;;;1.40;;
45011;SDS011;63444;48.148;11.542;2024-02-14T01:35:29;1.60;;;1.47;;
45011;SDS011;63444;48.148;11.542;2024-02-14T01:37:55;2.30;;;1.70;;
45011;SDS011;63444;48.148;11.542;2024-02-14T01:40:20;1.50;;;1.40;;
45011;SDS011;63444;48.148;11.542;2024-02-14T01:42:46;2.17;;;1.40;;
45011;SDS011;63444;48.148;11.542;2024-02-14T01:45:12;2.43;;;1.60;;
45011;SDS011;63444;48.148;11.542;2024-02-14T01:47:38;1.83;;;1.43;;
45011;SDS011;63444;48.148;11.542;2024-02-14T01:50:07;3.13;;;1.73;;
45011;SDS011;63444;48.148;11.542;2024-02-14T01:52:36;1.90;;;1.50;;
45011;SDS011;63444;48.148;11.542;2024-02-14T01:55:04;1.67;;;1.57;;
45011;SDS011;63444;48.148;11.542;2024-02-14T01:57:31;2.60;;;1.50;;
45011;SDS011;63444;48.148;11.542;2024-02-14T01:59:59;1.63;;;1.53;;
45011;SDS011;63444;48.148;11.542;2024-02-14T02:02:32;2.30;;;1.50;;
45011;SDS011;63444;48.148;11.542;2024-02-14T02:05:02;1.57;;;1.40;;
45011;SDS011;63444;48.148;11.542;2024-02-14T02:07:28;2.03;;;1.57;;
45011;SDS011;63444;48.148;11.542;2024-02-14T02:09:55;2.47;;;1.30;;
45011;SDS011;63444;48.148;11.542;2024-02-14T02:12:20;1.80;;;1.57;;
45011;SDS011;63444;48.148;11.542;2024-02-14T02:14:46;1.47;;;1.37;;
45011;SDS011;63444;48.148;11.542;2024-02-14T02:17:12;2.07;;;1.40;;
45011;SDS011;63444;48.148;11.542;2024-02-14T02:19:38;2.70;;;1.50;;
45011;SDS011;63444;48.148;11.542;2024-02-14T02:22:04;1.50;;;1.40;;
45011;SDS011;63444;48.148;11.542;2024-02-14T02:24:30;2.10;;;1.30;;
45011;SDS011;63444;48.148;11.542;2024-02-14T02:26:55;1.60;;;1.33;;
45011;SDS011;63444;48.148;11.542;2024-02-14T02:29:22;1.93;;;1.57;;
45011;SDS011;63444;48.148;11.542;2024-02-14T02:31:47;3.50;;;1.40;;
45011;SDS011;63444;48.148;11.542;2024-02-14T02:34:13;2.43;;;1.43;;
45011;SDS011;63444;48.148;11.542;2024-02-14T02:36:39;1.50;;;1.27;;
45011;SDS011;63444;48.148;11.542;2024-02-14T02:39:06;2.77;;;1.60;;
45011;SDS011;63444;48.148;11.542;2024-02-14T02:41:32;1.80;;;1.47;;
45011;SDS011;63444;48.148;11.542;2024-02-14T02:43:58;1.67;;;1.37;;
45011;SDS011;63444;48.148;11.542;2024-02-14T02:46:24;2.27;;;1.43;;
45011;SDS011;63444;48.148;11.542;2024-02-14T02:48:50;2.53;;;1.50;;
45011;SDS011;63444;48.148;11.542;2024-02-14T02:51:19;1.80;;;1.20;;
45011;SDS011;63444;48.148;11.542;2024-02-14T02:53:45;1.70;;;1.33;;
45011;SDS011;63444;48.148;11.542;2024-02-14T02:56:11;2.07;;;1.43;;
45011;SDS011;63444;48.148;11.542;2024-02-14T02:58:37;2.67;;;1.57;;
45011;SDS011;63444;48.148;11.542;2024-02-14T03:01:07;1.77;;;1.40;;
45011;SDS011;63444;48.148;11.542;2024-02-14T03:03:34;1.77;;;1.50;;
45011;SDS011;63444;48.148;11.542;2024-02-14T03:06:01;1.40;;;1.30;;
45011;SDS011;63444;48.148;11.542;2024-02-14T03:08:28;1.53;;;1.40;;
45011;SDS011;63444;48.148;11.542;2024-02-14T03:10:55;1.33;;;1.23;;
45011;SDS011;63444;48.148;11.542;2024-02-14T03:13:27;2.97;;;1.30;;
45011;SDS011;63444;48.148;11.542;2024-02-14T03:15:53;2.73;;;1.60;;
45011;SDS011;63444;48.148;11.542;2024-02-14T03:18:23;2.03;;;1.47;;
45011;SDS011;63444;48.148;11.542;2024-02-14T03:20:49;2.27;;;1.50;;
45011;SDS011;63444;48.148;11.542;2024-02-14T03:23:18;1.60;;;1.47;;
45011;SDS011;63444;48.148;11.542;2024-02-14T03:25:44;2.20;;;1.33;;
45011;SDS011;63444;48.148;11.542;2024-02-14T03:28:10;1.90;;;1.57;;
45011;SDS011;63444;48.148;11.542;2024-02-14T03:30:38;2.60;;;1.70;;
45011;SDS011;63444;48.148;11.542;2024-02-14T03:33:04;2.13;;;1.40;;
45011;SDS011;63444;48.148;11.542;2024-02-14T03:35:30;2.40;;;1.47;;
45011;SDS011;63444;48.148;11.542;2024-02-14T03:37:56;1.73;;;1.60;;
45011;SDS011;63444;48.148;11.542;2024-02-14T03:40:25;1.50;;;1.40;;
45011;SDS011;63444;48.148;11.542;2024-02-14T03:42:50;2.47;;;1.40;;
45011;SDS011;63444;48.148;11.542;2024-02-14T03:45:16;1.50;;;1.40;;
45011;SDS011;63444;48.148;11.542;2024-02-14T03:47:42;1.97;;;1.60;;
45011;SDS011;63444;48.148;11.542;2024-02-14T03:50:08;2.10;;;1.40;;
45011;SDS011;63444;48.148;11.542;2024-02-14T03:52:34;1.87;;;1.57;;
45011;SDS011;63444;48.148;11.542;2024-02-14T03:55:00;2.23;;;1.70;;
45011;SDS011;63444;48.148;11.542;2024-02-14T03:57:26;2.13;;;1.70;;
45011;SDS011;63444;48.148;11.542;2024-02-14T03:59:54;1.80;;;1.40;;
45011;SDS011;63444;48.148;11.542;2024-02-14T04:02:21;1.47;;;1.37;;
45011;SDS011;63444;48.148;11.542;2024-02-14T04:04:48;1.67;;;1.40;;
45011;SDS011;63444;48.148;11.542;2024-02-14T04:07:14;2.13;;;1.63;;
45011;SDS011;63444;48.148;11.542;2024-02-14T04:09:40;1.70;;;1.50;;
45011;SDS011;63444;48.148;11.542;2024-02-14T04:12:05;2.37;;;1.63;;
45011;SDS011;63444;48.148;11.542;2024-02-14T04:14:31;1.70;;;1.50;;
45011;SDS011;63444;48.148;11.542;2024-02-14T04:16:57;2.23;;;1.67;;
45011;SDS011;63444;48.148;11.542;2024-02-14T04:19:22;1.83;;;1.70;;
45011;SDS011;63444;48.148;11.542;2024-02-14T04:21:48;4.10;;;1.53;;
45011;SDS011;63444;48.148;11.542;2024-02-14T04:24:14;4.53;;;2.20;;
45011;SDS011;63444;48.148;11.542;2024-02-14T04:26:39;4.07;;;2.43;;
45011;SDS011;63444;48.148;11.542;2024-02-14T04:29:05;2.23;;;1.90;;
45011;SDS011;63444;48.148;11.542;2024-02-14T04:31:31;2.50;;;1.80;;
45011;SDS011;63444;48.148;11.542;2024-02-14T04:33:56;2.27;;;1.80;;
45011;SDS011;63444;48.148;11.542;2024-02-14T04:36:22;2.60;;;1.80;;
45011;SDS011;63444;48.148;11.542;2024-02-14T04:38:48;4.00;;;1.87;;
45011;SDS011;63444;48.148;11.542;2024-02-14T04:41:15;2.10;;;1.77;;
45011;SDS011;63444;48.148;11.542;2024-02-14T04:43:41;2.17;;;1.93;;
45011;SDS011;63444;48.148;11.542;2024-02-14T04:46:07;3.23;;;1.83;;
45011;SDS011;63444;48.148;11.542;2024-02-14T04:48:33;2.67;;;1.80;;
45011;SDS011;63444;48.148;11.542;2024-02-14T04:51:00;2.10;;;1.80;;
45011;SDS011;63444;48.148;11.542;2024-02-14T04:53:26;2.53;;;1.80;;
45011;SDS011;63444;48.148;11.542;2024-02-14T04:55:52;2.10;;;1.90;;
45011;SDS011;63444;48.148;11.542;2024-02-14T04:58:18;2.20;;;1.73;;
45011;SDS011;63444;48.148;11.542;2024-02-14T05:00:44;1.70;;;1.60;;
45011;SDS011;63444;48.148;11.542;2024-02-14T05:03:10;2.70;;;1.70;;
45011;SDS011;63444;48.148;11.542;2024-02-14T05:05:36;2.90;;;1.70;;
45011;SDS011;63444;48.148;11.542;2024-02-14T05:08:03;2.60;;;1.80;;
45011;SDS011;63444;48.148;11.542;2024-02-14T05:10:29;2.73;;;1.83;;
45011;SDS011;63444;48.148;11.542;2024-02-14T05:12:54;2.17;;;1.80;;
45011;SDS011;63444;48.148;11.542;2024-02-14T05:15:20;2.40;;;1.87;;
45011;SDS011;63444;48.148;11.542;2024-02-14T05:17:46;2.87;;;1.90;;
45011;SDS011;63444;48.148;11.542;2024-02-14T05:20:11;1.60;;;1.50;;
45011;SDS011;63444;48.148;11.542;2024-02-14T05:22:37;2.17;;;1.47;;
45011;SDS011;63444;48.148;11.542;2024-02-14T05:25:03;2.10;;;1.63;;
45011;SDS011;63444;48.148;11.542;2024-02-14T05:27:30;2.20;;;1.70;;
45011;SDS011;63444;48.148;11.542;2024-02-14T05:29:56;1.67;;;1.57;;
45011;SDS011;63444;48.148;11.542;2024-02-14T05:32:22;1.90;;;1.70;;
45011;SDS011;63444;48.148;11.542;2024-02-14T05:34:48;1.60;;;1.50;;
45011;SDS011;63444;48.148;11.542;2024-02-14T05:37:15;2.57;;;1.80;;
45011;SDS011;63444;48.148;11.542;2024-02-14T05:39:41;2.40;;;1.77;;
45011;SDS011;63444;48.148;11.542;2024-02-14T05:42:06;2.37;;;1.80;;
45011;SDS011;63444;48.148;11.542;2024-02-14T05:44:32;1.93;;;1.80;;
45011;SDS011;63444;48.148;11.542;2024-02-14T05:46:58;1.70;;;1.50;;
45011;SDS011;63444;48.148;11.542;2024-02-14T05:49:23;2.10;;;1.50;;
45011;SDS011;63444;48.148;11.542;2024-02-14T05:51:49;1.53;;;1.43;;
45011;SDS011;63444;48.148;11.542;2024-02-14T05:54:17;2.70;;;1.57;;
45011;SDS011;63444;48.148;11.542;2024-02-14T05:56:43;2.00;;;1.67;;
45011;SDS011;63444;48.148;11.542;2024-02-14T05:59:10;1.50;;;1.40;;
45011;SDS011;63444;48.148;11.542;2024-02-14T06:01:35;3.53;;;1.73;;
45011;SDS011;63444;48.148;11.542;2024-02-14T06:04:01;3.53;;;1.73;;
45011;SDS011;63444;48.148;11.542;2024-02-14T06:06:27;3.23;;;1.70;;
45011;SDS011;63444;48.148;11.542;2024-02-14T06:08:52;2.13;;;1.60;;
45011;SDS011;63444;48.148;11.542;2024-02-14T06:11:18;3.00;;;1.50;;
45011;SDS011;63444;48.148;11.542;2024-02-14T06:13:46;4.00;;;1.50;;
45011;SDS011;63444;48.148;11.542;2024-02-14T06:16:13;2.27;;;1.50;;
45011;SDS011;63444;48.148;11.542;2024-02-14T06:18:38;4.07;;;1.40;;
45011;SDS011;63444;48.148;11.542;2024-02-14T06:21:05;1.87;;;1.60;;
45011;SDS011;63444;48.148;11.542;2024-02-14T06:23:31;2.20;;;1.33;;
45011;SDS011;63444;48.148;11.542;2024-02-14T06:25:57;2.07;;;1.50;;
45011;SDS011;63444;48.148;11.542;2024-02-14T06:28:23;2.03;;;1.60;;
45011;SDS011;63444;48.148;11.542;2024-02-14T06:30:49;2.67;;;1.60;;
45011;SDS011;63444;48.148;11.542;2024-02-14T06:33:15;3.83;;;1.33;;
45011;SDS011;63444;48.148;11.542;2024-02-14T06:35:40;2.17;;;1.60;;
45011;SDS011;63444;48.148;11.542;2024-02-14T06:38:06;2.00;;;1.80;;
45011;SDS011;63444;48.148;11.542;2024-02-14T06:40:32;2.00;;;1.70;;
45011;SDS011;63444;48.148;11.542;2024-02-14T06:42:58;1.60;;;1.33;;
45011;SDS011;63444;48.148;11.542;2024-02-14T06:45:27;3.40;;;1.80;;
45011;SDS011;63444;48.148;11.542;2024-02-14T06:47:53;3.33;;;1.97;;
45011;SDS011;63444;48.148;11.542;2024-02-14T06:50:19;2.20;;;1.70;;
45011;SDS011;63444;48.148;11.542;2024-02-14T06:52:45;2.10;;;1.57;;
45011;SDS011;63444;48.148;11.542;2024-02-14T06:55:10;2.30;;;1.70;;
45011;SDS011;63444;48.148;11.542;2024-02-14T06:57:36;3.40;;;1.60;;
45011;SDS011;63444;48.148;11.542;2024-02-14T07:00:02;2.30;;;1.60;;
45011;SDS011;63444;48.148;11.542;2024-02-14T07:02:31;4.63;;;1.73;;
45011;SDS011;63444;48.148;11.542;2024-02-14T07:04:56;4.23;;;1.57;;
45011;SDS011;63444;48.148;11.542;2024-02-14T07:07:22;4.50;;;1.73;;
45011;SDS011;63444;48.148;11.542;2024-02-14T07:09:48;2.77;;;2.00;;
45011;SDS011;63444;48.148;11.542;2024-02-14T07:12:13;4.00;;;1.77;;
45011;SDS011;63444;48.148;11.542;2024-02-14T07:14:39;3.77;;;1.63;;
45011;SDS011;63444;48.148;11.542;2024-02-14T07:17:05;2.40;;;1.60;;
45011;SDS011;63444;48.148;11.542;2024-02-14T07:19:31;2.10;;;1.60;;
45011;SDS011;63444;48.148;11.542;2024-02-14T07:21:57;3.93;;;1.73;;
45011;SDS011;63444;48.148;11.542;2024-02-14T07:24:22;2.37;;;1.70;;
45011;SDS011;63444;48.148;11.542;2024-02-14T07:26:48;3.10;;;1.63;;
45011;SDS011;63444;48.148;11.542;2024-02-14T07:29:14;3.83;;;1.70;;
45011;SDS011;63444;48.148;11.542;2024-02-14T07:31:39;2.83;;;1.90;;
45011;SDS011;63444;48.148;11.542;2024-02-14T07:34:06;3.13;;;1.60;;
45011;SDS011;63444;48.148;11.542;2024-02-14T07:36:32;3.07;;;1.50;;
45011;SDS011;63444;48.148;11.542;2024-02-14T07:38:58;2.73;;;1.60;;
45011;SDS011;63444;48.148;11.542;2024-02-14T07:41:23;4.33;;;1.50;;
45011;SDS011;63444;48.148;11.542;2024-02-14T07:43:49;2.20;;;1.43;;
45011;SDS011;63444;48.148;11.542;2024-02-14T07:46:18;2.43;;;1.73;;
45011;SDS011;63444;48.148;11.542;2024-02-14T07:48:44;1.97;;;1.60;;
45011;SDS011;63444;48.148;11.542;2024-02-14T07:51:10;2.77;;;1.60;;
45011;SDS011;63444;48.148;11.542;2024-02-14T07:53:36;1.60;;;1.50;;
45011;SDS011;63444;48.148;11.542;2024-02-14T07:56:02;1.90;;;1.40;;
45011;SDS011;63444;48.148;11.542;2024-02-14T07:58:28;2.87;;;1.60;;
45011;SDS011;63444;48.148;11.542;2024-02-14T08:00:53;2.30;;;1.77;;
45011;SDS011;63444;48.148;11.542;2024-02-14T08:03:19;2.70;;;1.60;;
45011;SDS011;63444;48.148;11.542;2024-02-14T08:05:45;3.63;;;1.70;;
45011;SDS011;63444;48.148;11.542;2024-02-14T08:08:10;2.30;;;1.70;;
45011;SDS011;63444;48.148;11.542;2024-02-14T08:10:36;3.07;;;1.40;;
45011;SDS011;63444;48.148;11.542;2024-02-14T08:13:02;2.80;;;1.60;;
45011;SDS011;63444;48.148;11.542;2024-02-14T08:15:29;2.93;;;1.87;;
45011;SDS011;63444;48.148;11.542;2024-02-14T08:17:54;3.10;;;1.47;;
45011;SDS011;63444;48.148;11.542;2024-02-14T08:20:21;1.73;;;1.50;;
45011;SDS011;63444;48.148;11.542;2024-02-14T08:22:48;2.93;;;1.70;;
45011;SDS011;63444;48.148;11.542;2024-02-14T08:25:14;2.53;;;1.57;;
45011;SDS011;63444;48.148;11.542;2024-02-14T08:27:40;3.53;;;1.60;;
45011;SDS011;63444;48.148;11.542;2024-02-14T08:30:06;2.30;;;1.57;;
45011;SDS011;63444;48.148;11.542;2024-02-14T08:32:34;3.50;;;1.70;;
45011;SDS011;63444;48.148;11.542;2024-02-14T08:34:59;4.23;;;1.70;;
45011;SDS011;63444;48.148;11.542;2024-02-14T08:37:26;4.70;;;1.70;;
45011;SDS011;63444;48.148;11.542;2024-02-14T08:39:52;3.67;;;1.87;;
45011;SDS011;63444;48.148;11.542;2024-02-14T08:42:18;2.30;;;1.80;;
45011;SDS011;63444;48.148;11.542;2024-02-14T08:44:44;5.10;;;2.00;;
45011;SDS011;63444;48.148;11.542;2024-02-14T08:47:09;1.70;;;1.60;;
45011;SDS011;63444;48.148;11.542;2024-02-14T08:49:35;2.60;;;1.50;;
45011;SDS011;63444;48.148;11.542;2024-02-14T08:52:01;2.97;;;1.73;;
45011;SDS011;63444;48.148;11.542;2024-02-14T08:54:27;4.10;;;1.77;;
45011;SDS011;63444;48.148;11.542;2024-02-14T08:56:53;2.13;;;1.70;;
45011;SDS011;63444;48.148;11.542;2024-02-14T08:59:20;2.00;;;1.70;;
45011;SDS011;63444;48.148;11.542;2024-02-14T09:01:46;2.17;;;1.50;;
45011;SDS011;63444;48.148;11.542;2024-02-14T09:04:13;1.70;;;1.60;;
45011;SDS011;63444;48.148;11.542;2024-02-14T09:06:39;2.23;;;1.63;;
45011;SDS011;63444;48.148;11.542;2024-02-14T09:09:06;2.37;;;1.53;;
45011;SDS011;63444;48.148;11.542;2024-02-14T09:11:35;2.03;;;1.60;;
45011;SDS011;63444;48.148;11.542;2024-02-14T09:14:01;2.97;;;1.60;;
45011;SDS011;63444;48.148;11.542;2024-02-14T09:16:31;2.10;;;1.37;;
45011;SDS011;63444;48.148;11.542;2024-02-14T09:19:00;3.33;;;1.53;;
45011;SDS011;63444;48.148;11.542;2024-02-14T09:21:30;1.83;;;1.47;;
45011;SDS011;63444;48.148;11.542;2024-02-14T09:23:58;3.57;;;1.63;;
45011;SDS011;63444;48.148;11.542;2024-02-14T09:26:23;2.17;;;1.40;;
45011;SDS011;63444;48.148;11.542;2024-02-14T09:28:49;3.20;;;1.70;;
45011;SDS011;63444;48.148;11.542;2024-02-14T09:31:18;1.80;;;1.37;;
45011;SDS011;63444;48.148;11.542;2024-02-14T09:33:47;2.30;;;1.70;;
45011;SDS011;63444;48.148;11.542;2024-02-14T09:36:14;2.53;;;1.53;;
45011;SDS011;63444;48.148;11.542;2024-02-14T09:38:40;5.50;;;1.60;;
45011;SDS011;63444;48.148;11.542;2024-02-14T09:43:46;8.83;;;1.50;;
45011;SDS011;63444;48.148;11.542;2024-02-14T09:46:12;2.40;;;1.40;;
45011;SDS011;63444;48.148;11.542;2024-02-14T09:48:39;1.83;;;1.30;;
45011;SDS011;63444;48.148;11.542;2024-02-14T09:51:08;2.33;;;1.50;;
45011;SDS011;63444;48.148;11.542;2024-02-14T09:53:36;1.80;;;1.40;;
45011;SDS011;63444;48.148;11.542;2024-02-14T09:56:02;4.23;;;1.50;;
45011;SDS011;63444;48.148;11.542;2024-02-14T09:58:28;3.13;;;1.37;;
45011;SDS011;63444;48.148;11.542;2024-02-14T10:00:54;3.70;;;1.53;;
45011;SDS011;63444;48.148;11.542;2024-02-14T10:03:20;2.00;;;1.20;;
45011;SDS011;63444;48.148;11.542;2024-02-14T10:05:45;2.70;;;1.47;;
45011;SDS011;63444;48.148;11.542;2024-02-14T10:08:11;3.00;;;1.43;;
45011;SDS011;63444;48.148;11.542;2024-02-14T10:10:37;2.10;;;1.20;;
45011;SDS011;63444;48.148;11.542;2024-02-14T10:13:04;2.03;;;1.30;;
45011;SDS011;63444;48.148;11.542;2024-02-14T10:15:31;1.47;;;1.27;;
45011;SDS011;63444;48.148;11.542;2024-02-14T10:18:00;2.43;;;1.20;;
45011;SDS011;63444;48.148;11.542;2024-02-14T10:20:27;3.67;;;1.40;;
45011;SDS011;63444;48.148;11.542;2024-02-14T10:23:00;3.97;;;1.20;;
45011;SDS011;63444;48.148;11.542;2024-02-14T10:25:27;1.40;;;1.30;;
45011;SDS011;63444;48.148;11.542;2024-02-14T10:27:53;1.43;;;1.33;;
45011;SDS011;63444;48.148;11.542;2024-02-14T10:30:20;1.40;;;1.30;;
45011;SDS011;63444;48.148;11.542;2024-02-14T10:32:46;2.10;;;1.60;;
45011;SDS011;63444;48.148;11.542;2024-02-14T10:35:13;2.47;;;1.13;;
45011;SDS011;63444;48.148;11.542;2024-02-14T10:37:40;3.40;;;1.63;;
45011;SDS011;63444;48.148;11.542;2024-02-14T10:40:06;1.63;;;1.30;;
45011;SDS011;63444;48.148;11.542;2024-02-14T10:42:32;3.10;;;1.30;;
45011;SDS011;63444;48.148;11.542;2024-02-14T10:44:59;1.77;;;1.30;;
45011;SDS011;63444;48.148;11.542;2024-02-14T10:47:34;1.93;;;1.30;;
45011;SDS011;63444;48.148;11.542;2024-02-14T10:50:04;1.70;;;1.10;;
45011;SDS011;63444;48.148;11.542;2024-02-14T10:52:32;2.20;;;1.00;;
45011;SDS011;63444;48.148;11.542;2024-02-14T10:54:59;1.20;;;1.10;;
45011;SDS011;63444;48.148;11.542;2024-02-14T10:57:28;1.00;;;1.00;;
45011;SDS011;63444;48.148;11.542;2024-02-14T10:59:54;3.03;;;1.10;;
45011;SDS011;63444;48.148;11.542;2024-02-14T11:02:20;1.93;;;1.00;;
45011;SDS011;63444;48.148;11.542;2024-02-14T11:04:47;2.70;;;1.20;;
45011;SDS011;63444;48.148;11.542;2024-02-14T11:07:18;1.40;;;1.00;;
45011;SDS011;63444;48.148;11.542;2024-02-14T11:09:45;1.67;;;1.10;;
45011;SDS011;63444;48.148;11.542;2024-02-14T11:12:11;0.87;;;0.87;;
45011;SDS011;63444;48.148;11.542;2024-02-14T11:14:37;3.77;;;1.27;;
45011;SDS011;63444;48.148;11.542;2024-02-14T11:17:09;3.40;;;1.20;;
45011;SDS011;63444;48.148;11.542;2024-02-14T11:19:35;2.20;;;1.10;;
45011;SDS011;63444;48.148;11.542;2024-02-14T11:22:11;1.53;;;1.10;;
45011;SDS011;63444;48.148;11.542;2024-02-14T11:24:38;1.40;;;1.20;;
45011;SDS011;63444;48.148;11.542;2024-02-14T11:27:09;2.40;;;1.20;;
45011;SDS011;63444;48.148;11.542;2024-02-14T11:29:38;1.30;;;1.10;;
45011;SDS011;63444;48.148;11.542;2024-02-14T11:32:16;0.97;;;0.97;;
45011;SDS011;63444;48.148;11.542;2024-02-14T11:34:43;1.60;;;1.10;;
45011;SDS011;63444;48.148;11.542;2024-02-14T11:37:09;1.63;;;1.10;;
45011;SDS011;63444;48.148;11.542;2024-02-14T11:39:35;1.37;;;0.90;;
45011;SDS011;63444;48.148;11.542;2024-02-14T11:42:01;1.67;;;1.20;;
45011;SDS011;63444;48.148;11.542;2024-02-14T11:44:27;1.00;;;0.90;;
45011;SDS011;63444;48.148;11.542;2024-02-14T11:46:53;0.87;;;0.80;;
45011;SDS011;63444;48.148;11.542;2024-02-14T11:49:19;1.83;;;1.13;;
45011;SDS011;63444;48.148;11.542;2024-02-14T11:51:45;2.60;;;0.93;;
45011;SDS011;63444;48.148;11.542;2024-02-14T11:54:12;1.70;;;0.90;;
45011;SDS011;63444;48.148;11.542;2024-02-14T11:56:38;1.20;;;1.00;;
45011;SDS011;63444;48.148;11.542;2024-02-14T11:59:07;1.83;;;1.10;;
45011;SDS011;63444;48.148;11.542;2024-02-14T12:01:35;1.27;;;1.17;;
45011;SDS011;63444;48.148;11.542;2024-02-14T12:04:05;1.73;;;1.00;;
45011;SDS011;63444;48.148;11.542;2024-02-14T12:06:34;1.17;;;1.00;;
45011;SDS011;63444;48.148;11.542;2024-02-14T12:09:04;1.10;;;1.00;;
45011;SDS011;63444;48.148;11.542;2024-02-14T12:11:31;1.60;;;1.00;;
45011;SDS011;63444;48.148;11.542;2024-02-14T12:14:02;1.33;;;0.90;;
45011;SDS011;63444;48.148;11.542;2024-02-14T12:16:29;2.37;;;1.00;;
45011;SDS011;63444;48.148;11.542;2024-02-14T12:19:07;2.30;;;1.10;;
45011;SDS011;63444;48.148;11.542;2024-02-14T12:21:38;2.50;;;1.10;;
45011;SDS011;63444;48.148;11.542;2024-02-14T12:24:08;1.53;;;1.10;;
45011;SDS011;63444;48.148;11.542;2024-02-14T12:26:35;0.90;;;0.90;;
45011;SDS011;63444;48.148;11.542;2024-02-14T12:29:02;2.40;;;1.00;;
45011;SDS011;63444;48.148;11.542;2024-02-14T12:31:32;1.00;;;1.00;;
45011;SDS011;63444;48.148;11.542;2024-02-14T12:33:59;1.10;;;1.00;;
45011;SDS011;63444;48.148;11.542;2024-02-14T12:36:30;2.50;;;1.10;;
45011;SDS011;63444;48.148;11.542;2024-02-14T12:38:58;1.10;;;0.90;;
45011;SDS011;63444;48.148;11.542;2024-02-14T12:41:24;1.10;;;1.00;;
45011;SDS011;63444;48.148;11.542;2024-02-14T12:43:51;1.33;;;1.07;;
45011;SDS011;63444;48.148;11.542;2024-02-14T12:46:18;3.33;;;1.10;;
45011;SDS011;63444;48.148;11.542;2024-02-14T12:48:43;1.10;;;0.90;;
45011;SDS011;63444;48.148;11.542;2024-02-14T12:51:09;1.90;;;0.90;;
45011;SDS011;63444;48.148;11.542;2024-02-14T12:53:35;2.07;;;1.10;;
45011;SDS011;63444;48.148;11.542;2024-02-14T12:56:01;1.00;;;0.90;;
45011;SDS011;63444;48.148;11.542;2024-02-14T12:58:29;1.40;;;1.00;;
45011;SDS011;63444;48.148;11.542;2024-02-14T13:00:56;1.50;;;1.17;;
45011;SDS011;63444;48.148;11.542;2024-02-14T13:03:23;1.43;;;1.00;;
45011;SDS011;63444;48.148;11.542;2024-02-14T13:05:49;1.10;;;0.93;;
45011;SDS011;63444;48.148;11.542;2024-02-14T13:08:18;1.43;;;1.00;;
45011;SDS011;63444;48.148;11.542;2024-02-14T13:10:44;1.10;;;1.00;;
45011;SDS011;63444;48.148;11.542;2024-02-14T13:13:10;2.33;;;1.13;;
45011;SDS011;63444;48.148;11.542;2024-02-14T13:15:35;1.47;;;1.10;;
45011;SDS011;63444;48.148;11.542;2024-02-14T13:18:01;1.23;;;1.00;;
45011;SDS011;63444;48.148;11.542;2024-02-14T13:20:27;1.40;;;1.00;;
45011;SDS011;63444;48.148;11.542;2024-02-14T13:22:54;0.80;;;0.80;;
45011;SDS011;63444;48.148;11.542;2024-02-14T13:25:20;1.10;;;1.00;;
45011;SDS011;63444;48.148;11.542;2024-02-14T13:27:46;1.10;;;1.00;;
45011;SDS011;63444;48.148;11.542;2024-02-14T13:30:12;0.97;;;0.90;;
45011;SDS011;63444;48.148;11.542;2024-02-14T13:32:38;0.97;;;0.97;;
45011;SDS011;63444;48.148;11.542;2024-02-14T13:35:03;1.07;;;0.80;;
45011;SDS011;63444;48.148;11.542;2024-02-14T13:37:30;0.90;;;0.90;;
45011;SDS011;63444;48.148;11.542;2024-02-14T13:39:57;0.80;;;0.80;;
45011;SDS011;63444;48.148;11.542;2024-02-14T13:42:22;1.67;;;1.00;;
45011;SDS011;63444;48.148;11.542;2024-02-14T13:44:48;1.10;;;1.00;;
45011;SDS011;63444;48.148;11.542;2024-02-14T13:47:17;1.43;;;1.00;;
45011;SDS011;63444;48.148;11.542;2024-02-14T13:49:46;1.50;;;1.00;;
45011;SDS011;63444;48.148;11.542;2024-02-14T13:52:12;1.03;;;1.00;;
45011;SDS011;63444;48.148;11.542;2024-02-14T13:54:40;0.87;;;0.87;;
45011;SDS011;63444;48.148;11.542;2024-02-14T13:57:06;1.33;;;0.80;;
45011;SDS011;63444;48.148;11.542;2024-02-14T13:59:32;2.20;;;0.80;;
45011;SDS011;63444;48.148;11.542;2024-02-14T14:01:57;1.10;;;1.00;;
45011;SDS011;63444;48.148;11.542;2024-02-14T14:04:23;3.07;;;0.93;;
45011;SDS011;63444;48.148;11.542;2024-02-14T14:06:50;0.80;;;0.80;;
45011;SDS011;63444;48.148;11.542;2024-02-14T14:09:16;1.37;;;0.93;;
45011;SDS011;63444;48.148;11.542;2024-02-14T14:11:42;2.47;;;1.07;;
45011;SDS011;63444;48.148;11.542;2024-02-14T14:14:08;3.50;;;1.03;;
45011;SDS011;63444;48.148;11.542;2024-02-14T14:16:36;0.90;;;0.90;;
45011;SDS011;63444;48.148;11.542;2024-02-14T14:19:02;1.27;;;1.00;;
45011;SDS011;63444;48.148;11.542;2024-02-14T14:21:28;4.67;;;1.10;;
45011;SDS011;63444;48.148;11.542;2024-02-14T14:23:54;1.00;;;0.90;;
45011;SDS011;63444;48.148;11.542;2024-02-14T14:26:20;1.33;;;1.00;;
45011;SDS011;63444;48.148;11.542;2024-02-14T14:28:46;1.80;;;1.00;;
45011;SDS011;63444;48.148;11.542;2024-02-14T14:31:12;2.17;;;1.20;;